Time;durP1;ratioP1;P1;durP2;ratioP2;P2;SDS_P1;SDS_P2;PMS_P1;PMS_P2;Temp;Humidity;BMP_temperature;BMP_pressure;BME280_temperature;BME280_humidity;BME280_pressure;Samples;Min_cycle;Max_cycle;Signal;HPM_P1;HPM_P2
2023/06/08 00:01:45;;;;;;;22.85;12.77;;;;;;;;;;10078417;28;20560;-69
2023/06/08 00:06:41;;;;;;;17.77;13.70;;;;;;;;;;10062872;28;20090;-68
2023/06/08 00:11:38;;;;;;;20.20;13.25;;;;;;;;;;10074576;28;20441;-66
2023/06/08 00:16:34;;;;;;;23.10;13.18;;;;;;;;;;10081012;28;20082;-67
2023/06/08 00:21:33;;;;;;;20.60;12.93;;;;;;;;;;10077721;28;20050;-66
2023/06/08 00:26:29;;;;;;;21.08;12.55;;;;;;;;;;10084401;28;20524;-69
2023/06/08 00:31:26;;;;;;;20.88;13.52;;;;;;;;;;10072668;28;20064;-69
2023/06/08 00:36:22;;;;;;;21.00;14.05;;;;;;;;;;10076919;28;20139;-69
2023/06/08 00:41:21;;;;;;;21.42;13.93;;;;;;;;;;10072069;28;20541;-68
2023/06/08 00:46:18;;;;;;;18.55;13.68;;;;;;;;;;10079107;28;20054;-69
2023/06/08 00:51:16;;;;;;;23.05;14.63;;;;;;;;;;10065957;28;20047;-68
2023/06/08 00:56:16;;;;;;;23.38;14.13;;;;;;;;;;10072224;28;20051;-68
2023/06/08 01:01:17;;;;;;;23.20;14.50;;;;;;;;;;10067757;28;20071;-67
2023/06/08 01:06:16;;;;;;;26.58;16.10;;;;;;;;;;10073620;28;20706;-67
2023/06/08 01:11:21;;;;;;;23.63;15.73;;;;;;;;;;10083761;28;20523;-68
2023/06/08 01:16:18;;;;;;;24.90;14.45;;;;;;;;;;10070450;28;20043;-68
2023/06/08 01:21:33;;;;;;;24.85;14.68;;;;;;;;;;10067825;28;20716;-68
2023/06/08 01:26:31;;;;;;;21.88;14.77;;;;;;;;;;10069964;28;20331;-68
2023/06/08 01:31:27;;;;;;;24.40;15.85;;;;;;;;;;10072141;28;20492;-69
2023/06/08 01:36:24;;;;;;;25.58;16.13;;;;;;;;;;10086422;28;20071;-68
2023/06/08 01:41:22;;;;;;;23.65;17.67;;;;;;;;;;10051884;28;20044;-68
2023/06/08 01:46:20;;;;;;;27.13;16.13;;;;;;;;;;10071711;28;20074;-68
2023/06/08 01:51:17;;;;;;;20.20;15.63;;;;;;;;;;10073641;28;20047;-68
2023/06/08 01:56:13;;;;;;;28.52;17.08;;;;;;;;;;10079894;28;20047;-68
2023/06/08 02:01:10;;;;;;;23.70;17.10;;;;;;;;;;10061277;28;20062;-68
2023/06/08 02:06:06;;;;;;;22.90;16.15;;;;;;;;;;10071368;28;20055;-69
2023/06/08 02:11:03;;;;;;;31.65;17.45;;;;;;;;;;10067965;28;20053;-68
2023/06/08 02:15:59;;;;;;;28.33;17.13;;;;;;;;;;10069428;28;20070;-68
2023/06/08 02:20:57;;;;;;;30.33;17.52;;;;;;;;;;10072032;28;20409;-68
2023/06/08 02:25:54;;;;;;;27.52;17.67;;;;;;;;;;10063853;28;20051;-68
2023/06/08 02:30:50;;;;;;;27.63;18.45;;;;;;;;;;10066843;28;20896;-68
2023/06/08 02:35:47;;;;;;;26.77;16.75;;;;;;;;;;10065427;28;20051;-71
2023/06/08 02:40:43;;;;;;;25.48;17.73;;;;;;;;;;10064105;28;20548;-70
2023/06/08 02:45:42;;;;;;;22.08;18.63;;;;;;;;;;10071634;28;20071;-70
2023/06/08 02:50:38;;;;;;;19.70;16.52;;;;;;;;;;10072359;28;20047;-70
2023/06/08 02:55:36;;;;;;;19.38;16.05;;;;;;;;;;10066927;28;20055;-67
2023/06/08 03:00:34;;;;;;;17.63;15.40;;;;;;;;;;10053319;28;20505;-69
2023/06/08 03:05:34;;;;;;;23.92;16.63;;;;;;;;;;10055871;28;20055;-69
2023/06/08 03:10:30;;;;;;;21.42;16.80;;;;;;;;;;10074895;28;20054;-69
2023/06/08 03:15:27;;;;;;;24.38;17.48;;;;;;;;;;10067152;28;20047;-67
2023/06/08 03:20:23;;;;;;;22.70;17.65;;;;;;;;;;10071666;28;20047;-68
2023/06/08 03:25:21;;;;;;;21.80;17.42;;;;;;;;;;10066135;28;20102;-67
2023/06/08 03:30:17;;;;;;;22.88;18.42;;;;;;;;;;10067930;28;20074;-68
2023/06/08 03:35:15;;;;;;;27.33;21.15;;;;;;;;;;10066089;28;20054;-68
2023/06/08 03:40:11;;;;;;;26.00;18.75;;;;;;;;;;10047115;28;20816;-68
2023/06/08 03:45:07;;;;;;;28.67;20.15;;;;;;;;;;10068553;28;20047;-68
2023/06/08 03:50:04;;;;;;;26.17;19.60;;;;;;;;;;10069068;28;20057;-68
2023/06/08 03:55:01;;;;;;;30.02;21.05;;;;;;;;;;10071123;28;20047;-68
2023/06/08 03:59:57;;;;;;;24.90;18.10;;;;;;;;;;10070303;28;20110;-68
2023/06/08 04:04:53;;;;;;;26.00;19.75;;;;;;;;;;10047188;28;20141;-68
2023/06/08 04:09:49;;;;;;;28.27;20.20;;;;;;;;;;10071034;28;20050;-67
2023/06/08 04:14:46;;;;;;;26.42;20.30;;;;;;;;;;10074351;28;20067;-67
2023/06/08 04:19:42;;;;;;;25.90;20.58;;;;;;;;;;10070355;28;20055;-68
2023/06/08 04:24:38;;;;;;;23.80;19.42;;;;;;;;;;10078639;28;20461;-69
2023/06/08 04:29:35;;;;;;;29.48;21.92;;;;;;;;;;10070857;28;20051;-68
2023/06/08 04:34:35;;;;;;;27.92;21.58;;;;;;;;;;10070368;28;20051;-75
2023/06/08 04:39:36;;;;;;;25.45;18.92;;;;;;;;;;10047130;28;20055;-75
2023/06/08 04:44:35;;;;;;;24.23;19.67;;;;;;;;;;10038522;28;20051;-69
2023/06/08 04:49:32;;;;;;;26.02;20.92;;;;;;;;;;10103363;28;20103;-74
2023/06/08 04:54:42;;;;;;;40.97;26.13;;;;;;;;;;10108839;28;20070;-74
2023/06/08 05:00:28;;;;;;;32.33;24.83;;;;;;;;;;10086220;28;20042;-74
2023/06/08 05:06:14;;;;;;;33.53;24.48;;;;;;;;;;10106433;28;20090;-74
2023/06/08 05:11:37;;;;;;;34.83;24.85;;;;;;;;;;10131491;28;20073;-75
2023/06/08 05:16:35;;;;;;;39.78;28.13;;;;;;;;;;10107602;28;20054;-76
2023/06/08 05:21:32;;;;;;;39.05;28.60;;;;;;;;;;10110688;28;20078;-76
2023/06/08 05:26:28;;;;;;;37.88;27.02;;;;;;;;;;10103687;28;20113;-76
2023/06/08 05:31:27;;;;;;;35.30;26.85;;;;;;;;;;10113788;28;20051;-76
2023/06/08 05:36:23;;;;;;;36.83;25.90;;;;;;;;;;10123268;28;20500;-76
2023/06/08 05:41:20;;;;;;;40.80;28.63;;;;;;;;;;10111105;28;20205;-76
2023/06/08 05:46:16;;;;;;;37.97;27.85;;;;;;;;;;10110965;28;20477;-76
2023/06/08 05:51:13;;;;;;;37.90;27.75;;;;;;;;;;10119299;28;20043;-76
2023/06/08 05:56:09;;;;;;;34.22;25.17;;;;;;;;;;10104342;28;20059;-76
2023/06/08 06:01:06;;;;;;;36.75;24.77;;;;;;;;;;10118330;28;20089;-76
2023/06/08 06:06:03;;;;;;;41.45;27.70;;;;;;;;;;10109454;28;20097;-76
2023/06/08 06:10:59;;;;;;;34.38;26.55;;;;;;;;;;10113077;28;20464;-76
2023/06/08 06:15:55;;;;;;;38.58;27.65;;;;;;;;;;10105627;28;20078;-76
2023/06/08 06:20:52;;;;;;;36.70;26.63;;;;;;;;;;10108584;28;20047;-76
2023/06/08 06:25:50;;;;;;;30.83;24.17;;;;;;;;;;10112055;28;20113;-76
2023/06/08 06:30:46;;;;;;;37.13;24.98;;;;;;;;;;10122830;28;20101;-76
2023/06/08 06:35:42;;;;;;;38.95;23.02;;;;;;;;;;10111573;28;20101;-75
2023/06/08 06:40:39;;;;;;;34.33;23.52;;;;;;;;;;10090364;28;20051;-76
2023/06/08 06:45:38;;;;;;;28.27;20.80;;;;;;;;;;10111416;28;20050;-75
2023/06/08 06:50:35;;;;;;;33.58;23.30;;;;;;;;;;10103259;28;20089;-75
2023/06/08 06:55:34;;;;;;;29.35;21.67;;;;;;;;;;10106721;28;20073;-75
2023/06/08 07:00:37;;;;;;;37.67;23.65;;;;;;;;;;10103662;28;20062;-76
2023/06/08 07:05:33;;;;;;;29.67;20.48;;;;;;;;;;10109766;28;20452;-75
2023/06/08 07:10:30;;;;;;;31.67;20.40;;;;;;;;;;10112129;28;20097;-76
2023/06/08 07:15:27;;;;;;;27.02;19.45;;;;;;;;;;10116114;28;20043;-74
2023/06/08 07:20:23;;;;;;;21.92;19.15;;;;;;;;;;10110605;28;20066;-74
2023/06/08 07:25:23;;;;;;;24.60;18.10;;;;;;;;;;10106175;28;20083;-75
2023/06/08 07:30:39;;;;;;;28.00;19.98;;;;;;;;;;10118627;28;20057;-75
2023/06/08 07:35:35;;;;;;;31.05;18.83;;;;;;;;;;10116993;28;20540;-75
2023/06/08 07:40:32;;;;;;;25.05;18.95;;;;;;;;;;10106740;28;20528;-75
2023/06/08 07:45:28;;;;;;;24.90;19.23;;;;;;;;;;10105198;28;20765;-75
2023/06/08 07:50:26;;;;;;;21.58;16.65;;;;;;;;;;10120681;28;20049;-75
2023/06/08 07:55:23;;;;;;;28.65;20.55;;;;;;;;;;10112963;28;20046;-75
2023/06/08 08:00:19;;;;;;;22.77;18.00;;;;;;;;;;10126118;28;20087;-75
2023/06/08 08:05:16;;;;;;;27.83;17.67;;;;;;;;;;10121492;28;20580;-75
2023/06/08 08:10:12;;;;;;;24.05;18.02;;;;;;;;;;10094661;28;20046;-75
2023/06/08 08:15:09;;;;;;;26.65;19.75;;;;;;;;;;10112231;28;20047;-75
2023/06/08 08:20:07;;;;;;;28.15;18.83;;;;;;;;;;10115621;28;20101;-74
2023/06/08 08:25:04;;;;;;;31.52;19.77;;;;;;;;;;10096167;28;20102;-74
2023/06/08 08:30:02;;;;;;;28.35;18.70;;;;;;;;;;10123686;28;20101;-72
2023/06/08 08:34:58;;;;;;;27.83;18.25;;;;;;;;;;10122939;28;20074;-74
2023/06/08 08:39:55;;;;;;;30.33;18.40;;;;;;;;;;10124308;28;20046;-74
2023/06/08 08:44:53;;;;;;;27.63;17.27;;;;;;;;;;10114545;28;20093;-74
2023/06/08 08:50:03;;;;;;;26.83;17.88;;;;;;;;;;10119712;28;20081;-74
2023/06/08 08:55:02;;;;;;;22.90;17.40;;;;;;;;;;10112859;28;20055;-75
2023/06/08 08:59:59;;;;;;;26.10;17.10;;;;;;;;;;10127561;28;20047;-74
2023/06/08 09:04:55;;;;;;;23.77;17.45;;;;;;;;;;10111278;28;20739;-75
2023/06/08 09:10:10;;;;;;;23.70;18.50;;;;;;;;;;10114011;28;20042;-74
2023/06/08 09:15:11;;;;;;;21.95;17.25;;;;;;;;;;10122581;28;20050;-74
2023/06/08 09:20:10;;;;;;;22.50;16.85;;;;;;;;;;10118910;28;20069;-74
2023/06/08 09:25:07;;;;;;;23.60;18.00;;;;;;;;;;10108970;28;20051;-74
2023/06/08 09:30:21;;;;;;;25.42;17.83;;;;;;;;;;10117419;28;20515;-74
2023/06/08 09:35:21;;;;;;;24.83;17.67;;;;;;;;;;10116342;28;20652;-74
2023/06/08 09:40:20;;;;;;;27.10;18.00;;;;;;;;;;10110452;28;20042;-74
2023/06/08 09:45:21;;;;;;;21.48;16.42;;;;;;;;;;10117971;28;20066;-74
2023/06/08 09:50:18;;;;;;;21.27;17.77;;;;;;;;;;10119833;28;20070;-74
2023/06/08 09:55:15;;;;;;;23.80;16.38;;;;;;;;;;10115071;28;20070;-75
2023/06/08 10:00:14;;;;;;;18.17;14.50;;;;;;;;;;10118406;28;20089;-76
2023/06/08 10:05:13;;;;;;;23.70;16.60;;;;;;;;;;10084437;28;20054;-76
2023/06/08 10:10:21;;;;;;;21.25;17.30;;;;;;;;;;10118512;28;20051;-76
2023/06/08 10:15:19;;;;;;;23.95;18.13;;;;;;;;;;10104732;28;20101;-76
2023/06/08 10:20:16;;;;;;;20.52;15.25;;;;;;;;;;10116407;28;20046;-77
2023/06/08 10:25:13;;;;;;;18.65;14.82;;;;;;;;;;10092432;28;20098;-76
2023/06/08 10:30:10;;;;;;;16.08;13.60;;;;;;;;;;10090540;28;20047;-77
2023/06/08 10:35:07;;;;;;;18.15;12.10;;;;;;;;;;10120772;28;20106;-76
2023/06/08 10:40:08;;;;;;;16.00;11.88;;;;;;;;;;10113459;28;20047;-77
2023/06/08 10:45:05;;;;;;;16.03;12.87;;;;;;;;;;10103621;28;20122;-76
2023/06/08 10:50:03;;;;;;;15.60;11.80;;;;;;;;;;10091676;28;20417;-77
2023/06/08 10:55:03;;;;;;;20.38;12.25;;;;;;;;;;10101413;28;20075;-77
2023/06/08 11:00:00;;;;;;;12.65;10.43;;;;;;;;;;10108355;28;20493;-77
2023/06/08 11:04:58;;;;;;;11.38;10.07;;;;;;;;;;10081537;28;20082;-77
2023/06/08 11:10:04;;;;;;;11.93;9.48;;;;;;;;;;10094392;28;20655;-76
2023/06/08 11:15:00;;;;;;;11.55;9.35;;;;;;;;;;10109587;28;20051;-77
2023/06/08 11:20:01;;;;;;;14.57;9.88;;;;;;;;;;10113769;28;20161;-77
2023/06/08 11:24:57;;;;;;;11.87;9.17;;;;;;;;;;10107070;28;20043;-76
2023/06/08 11:29:53;;;;;;;12.95;9.07;;;;;;;;;;10110552;28;20043;-77
2023/06/08 11:34:53;;;;;;;10.23;8.07;;;;;;;;;;10106597;28;20102;-76
2023/06/08 11:39:49;;;;;;;11.15;8.88;;;;;;;;;;10106925;28;20055;-75
2023/06/08 11:44:47;;;;;;;8.02;7.20;;;;;;;;;;10108274;28;21359;-76
2023/06/08 11:49:49;;;;;;;12.25;7.70;;;;;;;;;;10097701;28;20409;-76
2023/06/08 11:54:50;;;;;;;9.90;7.70;;;;;;;;;;10107199;28;20051;-76
2023/06/08 11:59:46;;;;;;;13.73;7.50;;;;;;;;;;10104066;28;20058;-76
2023/06/08 12:04:43;;;;;;;10.95;7.85;;;;;;;;;;10115520;28;20046;-76
2023/06/08 12:09:46;;;;;;;13.40;7.68;;;;;;;;;;10104396;28;20520;-76
2023/06/08 12:14:43;;;;;;;9.77;7.50;;;;;;;;;;10110347;28;20081;-76
2023/06/08 12:19:46;;;;;;;11.68;6.72;;;;;;;;;;10090541;28;20527;-76
2023/06/08 12:24:42;;;;;;;11.57;7.50;;;;;;;;;;10096108;28;20102;-77
2023/06/08 12:29:40;;;;;;;11.52;7.88;;;;;;;;;;10098664;28;20074;-77
2023/06/08 12:34:37;;;;;;;7.95;7.05;;;;;;;;;;10124070;28;20504;-77
2023/06/08 12:39:33;;;;;;;10.90;7.40;;;;;;;;;;10110939;28;20442;-76
2023/06/08 12:44:30;;;;;;;9.57;7.30;;;;;;;;;;10090655;28;20481;-77
2023/06/08 12:49:26;;;;;;;12.35;7.70;;;;;;;;;;10111459;28;20101;-76
2023/06/08 12:54:25;;;;;;;11.35;7.70;;;;;;;;;;10119271;28;20054;-76
2023/06/08 12:59:21;;;;;;;8.82;6.85;;;;;;;;;;10109843;28;20552;-77
2023/06/08 13:04:18;;;;;;;9.50;7.20;;;;;;;;;;10115142;28;20543;-77
2023/06/08 13:09:14;;;;;;;9.90;7.63;;;;;;;;;;10102788;28;20501;-76
2023/06/08 13:14:11;;;;;;;11.20;7.57;;;;;;;;;;10107664;28;20047;-76
2023/06/08 13:19:07;;;;;;;13.60;7.03;;;;;;;;;;10114454;28;20413;-77
2023/06/08 13:24:06;;;;;;;8.52;6.57;;;;;;;;;;10107267;28;20039;-76
2023/06/08 13:29:03;;;;;;;9.25;7.55;;;;;;;;;;10110251;28;20043;-77
2023/06/08 13:33:59;;;;;;;11.52;7.57;;;;;;;;;;10119969;28;20125;-76
2023/06/08 13:38:56;;;;;;;8.73;7.70;;;;;;;;;;10114467;28;20050;-76
2023/06/08 13:43:52;;;;;;;10.13;8.45;;;;;;;;;;10111862;28;20042;-75
2023/06/08 13:48:50;;;;;;;10.30;7.13;;;;;;;;;;10100173;28;20102;-76
2023/06/08 13:53:49;;;;;;;7.93;7.15;;;;;;;;;;10108747;28;20050;-75
2023/06/08 13:58:45;;;;;;;12.15;8.20;;;;;;;;;;10102957;28;20305;-75
2023/06/08 14:03:41;;;;;;;8.88;7.70;;;;;;;;;;10092919;28;20131;-74
2023/06/08 14:08:38;;;;;;;9.27;8.18;;;;;;;;;;10106635;28;20458;-76
2023/06/08 14:13:34;;;;;;;8.80;7.85;;;;;;;;;;10108744;28;20054;-73
2023/06/08 14:18:31;;;;;;;10.65;7.22;;;;;;;;;;10104083;28;20042;-75
2023/06/08 14:23:27;;;;;;;11.25;8.70;;;;;;;;;;10099984;28;20129;-75
2023/06/08 14:28:24;;;;;;;9.57;8.52;;;;;;;;;;10108994;28;20051;-75
2023/06/08 14:33:20;;;;;;;10.32;8.38;;;;;;;;;;10109166;28;20047;-75
2023/06/08 14:38:16;;;;;;;9.90;8.18;;;;;;;;;;10104471;28;20046;-75
2023/06/08 14:43:13;;;;;;;10.55;8.30;;;;;;;;;;10114172;28;20136;-74
2023/06/08 14:48:09;;;;;;;9.00;8.20;;;;;;;;;;10101002;28;20047;-75
2023/06/08 14:53:06;;;;;;;14.13;8.63;;;;;;;;;;10116753;28;20116;-75
2023/06/08 14:58:02;;;;;;;12.02;8.52;;;;;;;;;;10111972;28;20113;-72
2023/06/08 15:02:59;;;;;;;10.35;8.25;;;;;;;;;;10103763;28;20045;-75
2023/06/08 15:07:56;;;;;;;9.18;8.27;;;;;;;;;;10114953;28;20105;-74
2023/06/08 15:12:52;;;;;;;13.30;8.88;;;;;;;;;;10105329;28;20066;-74
2023/06/08 15:17:48;;;;;;;10.00;8.13;;;;;;;;;;10101032;28;20631;-74
2023/06/08 15:22:45;;;;;;;8.90;7.60;;;;;;;;;;10094900;28;20059;-74
2023/06/08 15:27:41;;;;;;;10.82;7.78;;;;;;;;;;10102667;28;20043;-74
2023/06/08 15:32:37;;;;;;;8.30;7.45;;;;;;;;;;10090460;28;20070;-75
2023/06/08 15:37:34;;;;;;;8.20;6.97;;;;;;;;;;10105298;28;20192;-75
2023/06/08 15:42:30;;;;;;;10.48;8.20;;;;;;;;;;10108036;28;20047;-75
2023/06/08 15:47:26;;;;;;;7.72;6.95;;;;;;;;;;10107204;28;20058;-74
2023/06/08 15:52:23;;;;;;;8.70;7.57;;;;;;;;;;10117727;28;20413;-75
2023/06/08 15:57:19;;;;;;;8.48;6.88;;;;;;;;;;10100498;28;20074;-75
2023/06/08 16:02:16;;;;;;;9.35;7.05;;;;;;;;;;10116842;28;20062;-74
2023/06/08 16:07:12;;;;;;;8.10;6.63;;;;;;;;;;10103391;28;20429;-74
2023/06/08 16:12:09;;;;;;;10.50;6.72;;;;;;;;;;10109252;28;20042;-74
2023/06/08 16:17:05;;;;;;;8.95;6.95;;;;;;;;;;10117323;28;20039;-74
2023/06/08 16:22:01;;;;;;;7.80;7.00;;;;;;;;;;10106487;28;20413;-75
2023/06/08 16:26:58;;;;;;;9.05;7.35;;;;;;;;;;10107774;28;20070;-74
2023/06/08 16:31:55;;;;;;;12.15;7.13;;;;;;;;;;10117051;28;20047;-74
2023/06/08 16:36:52;;;;;;;8.20;7.40;;;;;;;;;;10093857;28;20504;-74
2023/06/08 16:41:49;;;;;;;7.38;6.68;;;;;;;;;;10110867;28;20370;-75
2023/06/08 16:46:45;;;;;;;10.02;7.65;;;;;;;;;;10112587;28;20369;-75
2023/06/08 16:51:42;;;;;;;9.52;7.68;;;;;;;;;;10105667;28;20050;-75
2023/06/08 16:56:38;;;;;;;7.85;6.63;;;;;;;;;;10112295;28;20050;-74
2023/06/08 17:01:36;;;;;;;7.80;7.00;;;;;;;;;;10114220;28;20080;-74
2023/06/08 17:06:36;;;;;;;9.65;6.57;;;;;;;;;;10102338;28;20462;-75
2023/06/08 17:11:33;;;;;;;8.60;6.82;;;;;;;;;;10111502;28;20055;-75
2023/06/08 17:16:29;;;;;;;10.10;7.03;;;;;;;;;;10121517;28;20054;-75
2023/06/08 17:21:26;;;;;;;8.68;6.70;;;;;;;;;;10109814;28;20054;-75
2023/06/08 17:26:22;;;;;;;8.07;6.47;;;;;;;;;;10116509;28;20039;-76
2023/06/08 17:31:18;;;;;;;8.20;6.68;;;;;;;;;;10117926;28;20081;-76
2023/06/08 17:36:15;;;;;;;9.20;6.93;;;;;;;;;;10119135;28;20035;-76
2023/06/08 17:41:11;;;;;;;11.02;6.85;;;;;;;;;;10106729;28;20550;-75
2023/06/08 17:46:08;;;;;;;8.63;6.93;;;;;;;;;;10107970;28;20086;-76
2023/06/08 17:51:04;;;;;;;9.77;6.40;;;;;;;;;;10109852;28;20049;-75
2023/06/08 17:56:01;;;;;;;9.43;6.32;;;;;;;;;;10110675;28;20561;-76
2023/06/08 18:00:59;;;;;;;9.20;6.40;;;;;;;;;;10117086;28;20101;-76
2023/06/08 18:05:56;;;;;;;9.38;6.80;;;;;;;;;;10120315;28;20052;-74
2023/06/08 18:11:14;;;;;;;10.52;7.10;;;;;;;;;;10094992;28;20110;-72
2023/06/08 18:16:10;;;;;;;10.15;7.45;;;;;;;;;;10115344;28;20049;-73
2023/06/08 18:21:07;;;;;;;7.68;6.32;;;;;;;;;;10111542;28;20468;-71
2023/06/08 18:26:03;;;;;;;7.57;6.78;;;;;;;;;;10098778;28;20552;-72
2023/06/08 18:31:00;;;;;;;13.40;9.65;;;;;;;;;;10110118;28;20042;-72
2023/06/08 18:35:56;;;;;;;18.52;10.73;;;;;;;;;;10105699;28;20058;-72
2023/06/08 18:40:52;;;;;;;13.93;8.75;;;;;;;;;;10101357;28;20066;-70
2023/06/08 18:45:49;;;;;;;11.48;6.80;;;;;;;;;;10090140;28;20133;-71
2023/06/08 18:50:45;;;;;;;7.60;5.90;;;;;;;;;;10116784;28;20116;-72
2023/06/08 18:55:42;;;;;;;8.70;6.70;;;;;;;;;;10103520;28;20054;-71
2023/06/08 19:00:39;;;;;;;10.05;6.63;;;;;;;;;;10094443;28;20134;-72
2023/06/08 19:05:35;;;;;;;10.07;7.72;;;;;;;;;;10113341;28;20050;-71
2023/06/08 19:10:31;;;;;;;12.75;8.15;;;;;;;;;;10098597;28;20106;-74
2023/06/08 19:15:28;;;;;;;11.18;6.30;;;;;;;;;;10108659;28;20050;-72
2023/06/08 19:20:24;;;;;;;13.48;6.65;;;;;;;;;;10090215;28;20055;-73
2023/06/08 19:25:20;;;;;;;9.98;6.70;;;;;;;;;;10119939;28;20042;-73
2023/06/08 19:30:17;;;;;;;9.57;7.25;;;;;;;;;;10113800;28;20571;-73
2023/06/08 19:35:13;;;;;;;13.65;7.68;;;;;;;;;;10115840;28;20066;-73
2023/06/08 19:40:10;;;;;;;10.82;7.60;;;;;;;;;;10090601;28;20047;-73
2023/06/08 19:45:07;;;;;;;11.63;7.07;;;;;;;;;;10115339;28;20046;-73
2023/06/08 19:50:04;;;;;;;9.55;6.97;;;;;;;;;;10087613;28;20511;-72
2023/06/08 19:55:01;;;;;;;9.88;6.63;;;;;;;;;;10114871;28;20578;-72
2023/06/08 19:59:58;;;;;;;10.85;8.07;;;;;;;;;;10115153;28;20146;-72
2023/06/08 20:04:54;;;;;;;9.98;7.28;;;;;;;;;;10122285;28;20546;-73
2023/06/08 20:09:51;;;;;;;10.77;6.65;;;;;;;;;;10114654;28;20113;-72
2023/06/08 20:14:47;;;;;;;10.93;7.68;;;;;;;;;;10099601;28;20683;-72
2023/06/08 20:19:43;;;;;;;11.45;7.40;;;;;;;;;;10107633;28;20081;-73
2023/06/08 20:24:41;;;;;;;8.63;6.93;;;;;;;;;;10104038;28;20047;-66
2023/06/08 20:29:38;;;;;;;11.73;6.50;;;;;;;;;;10124984;28;20051;-68
2023/06/08 20:34:34;;;;;;;15.50;7.18;;;;;;;;;;10118497;28;20046;-68
2023/06/08 20:39:31;;;;;;;9.63;6.70;;;;;;;;;;10100106;28;20128;-68
2023/06/08 20:44:27;;;;;;;10.30;6.82;;;;;;;;;;10114889;28;20049;-68
2023/06/08 20:49:24;;;;;;;9.63;6.65;;;;;;;;;;10126068;28;20497;-67
2023/06/08 20:54:20;;;;;;;10.70;6.60;;;;;;;;;;10123865;28;21231;-68
2023/06/08 20:59:16;;;;;;;8.77;6.60;;;;;;;;;;10117308;28;20042;-68
2023/06/08 21:04:13;;;;;;;9.48;6.50;;;;;;;;;;10129780;28;20066;-68
2023/06/08 21:09:11;;;;;;;8.80;6.07;;;;;;;;;;10129976;28;20042;-67
2023/06/08 21:14:07;;;;;;;10.23;6.57;;;;;;;;;;10127060;28;20321;-68
2023/06/08 21:19:04;;;;;;;10.15;6.50;;;;;;;;;;10122992;28;20102;-68
2023/06/08 21:24:01;;;;;;;9.13;6.45;;;;;;;;;;10105979;28;20076;-68
2023/06/08 21:28:57;;;;;;;9.73;6.70;;;;;;;;;;10121284;28;20050;-68
2023/06/08 21:33:53;;;;;;;8.73;6.43;;;;;;;;;;10139109;28;20069;-68
2023/06/08 21:38:50;;;;;;;9.65;6.25;;;;;;;;;;10131779;28;20969;-67
2023/06/08 21:43:47;;;;;;;10.32;6.30;;;;;;;;;;10131680;28;20078;-65
2023/06/08 21:48:43;;;;;;;10.80;6.13;;;;;;;;;;10115885;28;20078;-66
2023/06/08 21:53:39;;;;;;;9.48;6.70;;;;;;;;;;10121264;28;20050;-66
2023/06/08 21:58:36;;;;;;;9.18;6.40;;;;;;;;;;10114138;28;20073;-65
2023/06/08 22:03:32;;;;;;;9.35;5.90;;;;;;;;;;10130285;28;20038;-66
2023/06/08 22:08:28;;;;;;;10.70;6.47;;;;;;;;;;10132905;28;21187;-65
2023/06/08 22:13:30;;;;;;;7.15;5.88;;;;;;;;;;10128809;28;20050;-66
2023/06/08 22:18:31;;;;;;;11.65;6.63;;;;;;;;;;10113179;28;20043;-66
2023/06/08 22:23:27;;;;;;;9.00;6.43;;;;;;;;;;10114195;28;20089;-67
2023/06/08 22:28:24;;;;;;;12.70;6.47;;;;;;;;;;10125739;28;20047;-66
2023/06/08 22:33:26;;;;;;;13.98;6.40;;;;;;;;;;10127305;28;20130;-67
2023/06/08 22:38:22;;;;;;;10.13;6.10;;;;;;;;;;10110518;28;20105;-68
2023/06/08 22:43:18;;;;;;;10.70;7.10;;;;;;;;;;10115735;28;20465;-67
2023/06/08 22:48:15;;;;;;;13.20;6.78;;;;;;;;;;10125412;28;20046;-67
2023/06/08 22:53:12;;;;;;;11.43;6.45;;;;;;;;;;10125176;28;20042;-67
2023/06/08 22:58:09;;;;;;;10.75;6.85;;;;;;;;;;10125879;28;20562;-68
2023/06/08 23:03:07;;;;;;;9.38;6.70;;;;;;;;;;10129580;28;20071;-68
2023/06/08 23:08:07;;;;;;;10.05;7.22;;;;;;;;;;10130890;28;20046;-66
2023/06/08 23:13:04;;;;;;;10.15;7.00;;;;;;;;;;10122226;28;20676;-67
2023/06/08 23:18:02;;;;;;;9.73;6.75;;;;;;;;;;10124490;28;20046;-68
2023/06/08 23:22:58;;;;;;;10.57;7.15;;;;;;;;;;10123902;28;20443;-67
2023/06/08 23:27:56;;;;;;;9.57;6.68;;;;;;;;;;10126500;28;20093;-66
2023/06/08 23:32:53;;;;;;;11.88;6.88;;;;;;;;;;10110478;28;20057;-67
2023/06/08 23:37:50;;;;;;;12.77;7.00;;;;;;;;;;10132791;28;20039;-67
2023/06/08 23:42:46;;;;;;;8.65;7.25;;;;;;;;;;10136712;28;20058;-66
2023/06/08 23:47:44;;;;;;;10.75;6.82;;;;;;;;;;10136280;28;20054;-67
2023/06/08 23:52:40;;;;;;;12.02;7.05;;;;;;;;;;10131573;28;20429;-66
2023/06/08 23:57:37;;;;;;;10.63;6.80;;;;;;;;;;10126900;28;20051;-65
